Time;durP1;ratioP1;P1;durP2;ratioP2;P2;SDS_P1;SDS_P2;PMS_P1;PMS_P2;Temp;Humidity;BMP_temperature;BMP_pressure;BME280_temperature;BME280_humidity;BME280_pressure;Samples;Min_cycle;Max_cycle;Signal;HPM_P1;HPM_P2
2022/07/10 00:00:33;;;;;;;2.70;2.50;;;23.00;52.50;;;;;;5037885;28;20192;-73
2022/07/10 00:02:59;;;;;;;2.30;2.20;;;23.00;52.40;;;;;;5055555;28;20187;-73
2022/07/10 00:05:27;;;;;;;2.70;2.50;;;23.00;52.40;;;;;;5037771;28;20297;-73
2022/07/10 00:07:54;;;;;;;2.92;2.20;;;23.00;52.50;;;;;;5037639;28;20570;-73
2022/07/10 00:10:22;;;;;;;2.65;2.45;;;23.00;53.10;;;;;;5037555;28;20304;-73
2022/07/10 00:12:49;;;;;;;2.40;2.20;;;23.00;52.50;;;;;;5055162;28;20212;-73
2022/07/10 00:15:17;;;;;;;2.40;2.20;;;23.00;52.60;;;;;;5037406;28;20202;-73
2022/07/10 00:17:44;;;;;;;2.45;2.25;;;23.00;52.60;;;;;;5055644;28;20188;-73
2022/07/10 00:20:12;;;;;;;2.53;2.33;;;22.90;52.50;;;;;;5037296;28;20743;-73
2022/07/10 00:22:39;;;;;;;2.55;2.35;;;23.00;52.60;;;;;;5037338;28;20713;-73
2022/07/10 00:25:07;;;;;;;2.28;2.13;;;23.00;52.60;;;;;;5037207;28;20192;-73
2022/07/10 00:27:35;;;;;;;2.10;2.00;;;22.90;52.50;;;;;;5037135;28;20200;-73
2022/07/10 00:30:02;;;;;;;2.40;2.20;;;22.90;52.50;;;;;;5037078;28;20251;-73
2022/07/10 00:32:31;;;;;;;2.50;2.30;;;22.90;52.50;;;;;;5054787;28;20219;-73
2022/07/10 00:34:57;;;;;;;2.42;2.33;;;22.90;52.60;;;;;;5054255;28;20199;-73
2022/07/10 00:40:08;;;;;;;2.38;2.17;;;22.90;53.20;;;;;;5148053;22;20239;-74
2022/07/10 00:53:27;;;;;;;2.80;2.40;;;22.90;52.90;;;;;;6152414;22;20185;31
2022/07/10 00:55:54;;;;;;;2.60;2.40;;;22.90;53.10;;;;;;4971937;28;20237;-74
2022/07/10 00:58:22;;;;;;;2.33;2.13;;;22.90;53.20;;;;;;4974686;28;20213;-74
2022/07/10 01:00:49;;;;;;;2.40;2.20;;;22.90;53.30;;;;;;4974878;28;20202;-74
2022/07/10 01:03:16;;;;;;;2.63;2.42;;;22.90;53.40;;;;;;4976137;28;20666;-75
2022/07/10 01:05:43;;;;;;;2.35;2.15;;;22.90;53.40;;;;;;4975044;28;20774;-75
2022/07/10 01:08:10;;;;;;;2.40;2.20;;;22.90;53.30;;;;;;4976484;28;20198;-74
2022/07/10 01:10:39;;;;;;;2.42;2.20;;;22.90;53.40;;;;;;4974820;28;20685;-74
2022/07/10 01:13:06;;;;;;;2.67;2.47;;;22.90;53.40;;;;;;4974326;28;20786;-74
2022/07/10 01:15:35;;;;;;;2.42;2.30;;;22.90;53.40;;;;;;4975471;28;20306;-75
2022/07/10 01:18:03;;;;;;;2.40;2.20;;;22.90;53.30;;;;;;4974220;28;20201;-74
2022/07/10 01:20:31;;;;;;;3.17;2.40;;;22.90;53.50;;;;;;4974248;28;20206;-75
2022/07/10 01:22:59;;;;;;;2.63;2.15;;;22.90;53.40;;;;;;4974460;28;20198;-74
2022/07/10 01:25:26;;;;;;;3.15;2.40;;;22.90;53.40;;;;;;4974117;28;20710;-74
2022/07/10 01:27:54;;;;;;;2.10;2.00;;;22.90;53.50;;;;;;4974257;28;20210;-74
2022/07/10 01:30:21;;;;;;;2.70;2.25;;;22.90;53.50;;;;;;4975068;28;20205;-74
2022/07/10 01:32:48;;;;;;;3.60;2.40;;;22.80;53.50;;;;;;4973925;28;20222;-74
2022/07/10 01:35:16;;;;;;;2.38;2.20;;;22.90;53.60;;;;;;4975577;28;20213;-74
2022/07/10 01:37:43;;;;;;;2.42;2.22;;;22.80;53.50;;;;;;4975200;28;20198;-74
2022/07/10 01:40:12;;;;;;;2.45;2.25;;;22.80;53.50;;;;;;4974024;28;20201;-74
2022/07/10 01:42:39;;;;;;;4.82;2.42;;;22.80;53.50;;;;;;4973806;28;20256;-74
2022/07/10 01:45:07;;;;;;;2.55;2.35;;;22.80;53.60;;;;;;4973803;28;20218;-75
2022/07/10 01:47:34;;;;;;;2.30;2.10;;;22.80;53.60;;;;;;4974460;28;20218;-74
2022/07/10 01:50:01;;;;;;;2.60;2.40;;;22.80;53.60;;;;;;4975299;28;20285;-74
2022/07/10 01:52:29;;;;;;;2.33;2.20;;;22.70;53.50;;;;;;4973608;28;20225;-74
2022/07/10 01:54:56;;;;;;;2.20;2.10;;;22.70;53.60;;;;;;4973510;28;20667;-75
2022/07/10 01:57:24;;;;;;;2.97;2.03;;;22.70;53.60;;;;;;4975091;28;20194;-74
2022/07/10 01:59:51;;;;;;;2.90;2.40;;;22.70;53.60;;;;;;4973916;28;20202;-74
2022/07/10 02:02:18;;;;;;;2.50;2.30;;;22.70;53.60;;;;;;4973735;28;20201;-74
2022/07/10 02:04:45;;;;;;;2.70;2.50;;;22.70;53.70;;;;;;4973715;28;20221;-75
2022/07/10 02:07:12;;;;;;;2.78;2.47;;;22.70;53.80;;;;;;4973870;28;20655;-74
2022/07/10 02:09:39;;;;;;;2.42;2.22;;;22.70;53.80;;;;;;4973895;28;20205;-74
2022/07/10 02:12:07;;;;;;;2.40;2.20;;;22.70;53.80;;;;;;5051638;22;20566;-65
2022/07/10 02:14:35;;;;;;;2.50;2.30;;;22.70;54.40;;;;;;4994330;28;20550;-67
2022/07/10 02:17:03;;;;;;;2.38;2.22;;;22.70;53.80;;;;;;4994134;28;20574;-67
2022/07/10 02:19:30;;;;;;;2.42;2.33;;;22.70;53.90;;;;;;4993067;28;20198;-67
2022/07/10 02:21:57;;;;;;;2.30;2.10;;;22.60;53.70;;;;;;4992941;28;20642;-67
2022/07/10 02:24:24;;;;;;;2.20;2.10;;;22.60;53.70;;;;;;4992876;28;20296;-66
2022/07/10 02:26:51;;;;;;;2.33;2.10;;;22.60;53.70;;;;;;4993218;28;20680;-67
2022/07/10 02:29:19;;;;;;;2.60;2.40;;;22.60;53.70;;;;;;4994073;28;20205;-67
2022/07/10 02:31:47;;;;;;;2.58;2.00;;;22.60;53.70;;;;;;4993878;28;20554;-67
2022/07/10 02:34:15;;;;;;;2.20;2.10;;;22.60;53.70;;;;;;4992848;28;20228;-68
2022/07/10 02:36:41;;;;;;;2.42;2.22;;;22.50;53.70;;;;;;4993042;28;20213;-67
2022/07/10 02:39:09;;;;;;;2.45;2.25;;;22.50;53.70;;;;;;4992979;28;20284;-67
2022/07/10 02:41:36;;;;;;;2.33;2.20;;;22.50;53.80;;;;;;4998468;28;20221;-67
2022/07/10 02:44:03;;;;;;;2.50;2.30;;;22.50;53.80;;;;;;4992980;28;20201;-66
2022/07/10 02:46:30;;;;;;;2.20;2.10;;;22.50;53.90;;;;;;4992779;28;20205;-67
2022/07/10 02:48:59;;;;;;;2.60;2.40;;;22.50;53.90;;;;;;4992968;28;20672;-67
2022/07/10 02:51:26;;;;;;;2.15;2.05;;;22.40;53.90;;;;;;4992826;28;20202;-67
2022/07/10 02:53:53;;;;;;;2.25;2.03;;;22.40;53.90;;;;;;4992593;28;20236;-67
2022/07/10 02:56:20;;;;;;;2.10;2.00;;;22.40;53.90;;;;;;4992636;28;20598;-67
2022/07/10 02:58:47;;;;;;;2.10;2.00;;;22.40;54.00;;;;;;4993622;28;20653;-67
2022/07/10 03:01:14;;;;;;;2.25;2.13;;;22.40;54.00;;;;;;4996760;28;20337;-67
2022/07/10 03:03:42;;;;;;;2.03;1.92;;;22.40;54.10;;;;;;4996203;28;20245;-67
2022/07/10 03:06:10;;;;;;;2.67;2.47;;;22.30;54.00;;;;;;4996532;28;20252;-67
2022/07/10 03:08:37;;;;;;;2.20;2.10;;;22.40;54.00;;;;;;4996089;28;20240;-67
2022/07/10 03:11:04;;;;;;;2.47;2.30;;;22.30;54.00;;;;;;4996132;28;20733;-67
2022/07/10 03:13:32;;;;;;;2.35;2.15;;;22.40;54.20;;;;;;4997898;28;20241;-68
2022/07/10 03:15:58;;;;;;;2.58;2.38;;;22.40;54.30;;;;;;4996120;28;20198;-67
2022/07/10 03:18:26;;;;;;;2.20;2.10;;;22.40;54.30;;;;;;4996193;28;20684;-67
2022/07/10 03:20:53;;;;;;;2.70;2.50;;;22.40;54.30;;;;;;4997131;28;20196;-67
2022/07/10 03:23:21;;;;;;;2.30;2.20;;;22.40;54.10;;;;;;4995962;28;20217;-66
2022/07/10 03:25:48;;;;;;;2.58;2.35;;;22.40;54.10;;;;;;4995763;28;20586;-67
2022/07/10 03:28:20;;;;;;;2.50;2.30;;;22.40;53.90;;;;;;4995851;28;20749;-67
2022/07/10 03:30:47;;;;;;;2.30;2.10;;;22.50;53.90;;;;;;4995979;28;20251;-67
2022/07/10 03:33:15;;;;;;;2.78;2.40;;;22.60;53.90;;;;;;4995696;28;20232;-67
2022/07/10 03:35:42;;;;;;;2.63;2.53;;;22.60;53.70;;;;;;4997048;28;20205;-66
2022/07/10 03:38:09;;;;;;;2.78;2.58;;;22.60;53.70;;;;;;4996670;28;20573;-67
2022/07/10 03:40:37;;;;;;;2.63;2.42;;;22.70;53.60;;;;;;4995503;28;20231;-67
2022/07/10 03:43:04;;;;;;;1.95;1.85;;;22.70;53.30;;;;;;4995327;28;20264;-67
2022/07/10 03:45:32;;;;;;;2.47;2.33;;;22.80;53.30;;;;;;4995468;28;20658;-66
2022/07/10 03:47:58;;;;;;;2.45;2.33;;;22.90;53.30;;;;;;4996864;28;20189;-67
2022/07/10 03:50:26;;;;;;;2.83;2.40;;;22.90;53.70;;;;;;4995183;28;20197;-67
2022/07/10 03:52:53;;;;;;;2.30;2.10;;;22.90;53.00;;;;;;4995101;28;20249;-67
2022/07/10 03:55:20;;;;;;;2.50;2.30;;;23.00;53.00;;;;;;4995071;28;20206;-67
2022/07/10 03:57:53;;;;;;;2.35;2.25;;;22.90;52.80;;;;;;4996699;28;20194;-67
2022/07/10 04:00:22;;;;;;;2.15;2.05;;;23.00;52.70;;;;;;4996504;28;20182;-67
2022/07/10 04:02:50;;;;;;;2.55;2.35;;;23.00;52.60;;;;;;4996312;28;20217;-67
2022/07/10 04:05:17;;;;;;;2.63;2.42;;;23.00;52.60;;;;;;4996328;28;20198;-67
2022/07/10 04:07:44;;;;;;;3.63;2.30;;;23.10;52.70;;;;;;4994988;28;20209;-67
2022/07/10 04:10:11;;;;;;;2.38;2.17;;;23.10;52.70;;;;;;4994884;28;20201;-67
2022/07/10 04:12:38;;;;;;;2.20;2.10;;;23.10;52.70;;;;;;4996140;28;20217;-67
2022/07/10 04:15:07;;;;;;;2.55;2.35;;;23.10;52.70;;;;;;4994797;28;20224;-67
2022/07/10 04:17:36;;;;;;;2.67;2.42;;;23.10;52.60;;;;;;4994767;28;20658;-67
2022/07/10 04:20:03;;;;;;;2.80;2.40;;;23.10;52.50;;;;;;4995190;28;20204;-67
2022/07/10 04:22:30;;;;;;;2.30;2.15;;;23.10;52.50;;;;;;4995221;28;20217;-68
2022/07/10 04:24:57;;;;;;;2.53;2.33;;;23.10;52.50;;;;;;4994975;28;20670;-67
2022/07/10 04:27:24;;;;;;;2.20;2.00;;;23.10;52.40;;;;;;4995014;28;20208;-67
2022/07/10 04:29:51;;;;;;;2.28;2.15;;;23.10;52.40;;;;;;4995004;28;20542;-66
2022/07/10 04:32:20;;;;;;;2.13;2.03;;;23.10;52.40;;;;;;4995700;28;20721;-67
2022/07/10 04:34:47;;;;;;;2.50;2.30;;;23.10;52.40;;;;;;4996253;28;20210;-67
2022/07/10 04:37:14;;;;;;;2.75;2.55;;;23.10;52.40;;;;;;4995017;28;20205;-67
2022/07/10 04:39:41;;;;;;;2.10;2.00;;;23.10;52.40;;;;;;4994795;28;20240;-67
2022/07/10 04:42:08;;;;;;;2.50;2.30;;;23.10;52.40;;;;;;4994463;28;20210;-67
2022/07/10 04:44:36;;;;;;;2.30;2.10;;;23.10;52.50;;;;;;4995519;28;20190;-67
2022/07/10 04:47:03;;;;;;;2.50;2.30;;;23.10;52.50;;;;;;4995836;28;20190;-67
2022/07/10 04:49:31;;;;;;;2.65;2.30;;;23.10;52.40;;;;;;4994256;28;20198;-67
2022/07/10 04:51:58;;;;;;;2.47;2.28;;;23.10;52.40;;;;;;4994240;28;20218;-67
2022/07/10 04:54:25;;;;;;;2.50;2.30;;;23.10;52.40;;;;;;4994303;28;20268;-65
2022/07/10 04:56:52;;;;;;;2.55;2.33;;;23.10;52.40;;;;;;4995812;28;20686;-66
2022/07/10 04:59:19;;;;;;;2.30;2.20;;;23.10;52.50;;;;;;4994334;28;20228;-67
2022/07/10 05:01:46;;;;;;;2.40;2.20;;;23.10;52.50;;;;;;4994034;28;20728;-67
2022/07/10 05:04:14;;;;;;;2.30;2.20;;;23.10;52.60;;;;;;4994081;28;20645;-67
2022/07/10 05:06:42;;;;;;;2.50;2.30;;;23.20;52.50;;;;;;4994126;28;20198;-67
2022/07/10 05:09:09;;;;;;;2.40;2.20;;;23.20;52.40;;;;;;4994186;28;20244;-67
2022/07/10 05:11:36;;;;;;;2.70;2.50;;;23.30;52.20;;;;;;4993762;28;20248;-67
2022/07/10 05:14:04;;;;;;;2.47;2.28;;;23.30;52.10;;;;;;4993863;28;20312;-67
2022/07/10 05:16:30;;;;;;;2.20;2.05;;;23.30;51.90;;;;;;4993892;28;20293;-67
2022/07/10 05:18:57;;;;;;;2.00;1.90;;;23.30;52.00;;;;;;4993669;28;20230;-67
2022/07/10 05:21:25;;;;;;;2.33;2.17;;;23.20;52.00;;;;;;4992832;28;20205;-67
2022/07/10 05:23:54;;;;;;;2.50;2.30;;;23.30;52.10;;;;;;4993651;28;20209;-67
2022/07/10 05:26:21;;;;;;;2.55;2.35;;;23.20;52.20;;;;;;4993831;28;20701;-67
2022/07/10 05:28:48;;;;;;;2.40;2.20;;;23.20;52.20;;;;;;4994848;28;20243;-67
2022/07/10 05:31:15;;;;;;;2.45;2.25;;;23.20;52.10;;;;;;4993556;28;20551;-67
2022/07/10 05:33:43;;;;;;;2.15;2.05;;;23.20;52.20;;;;;;4993517;28;20226;-67
2022/07/10 05:36:10;;;;;;;2.40;2.20;;;23.20;52.20;;;;;;4994860;28;20185;-67
2022/07/10 05:38:37;;;;;;;2.45;2.25;;;23.20;52.20;;;;;;4993264;28;20201;-66
2022/07/10 05:41:05;;;;;;;2.33;2.20;;;23.20;52.10;;;;;;4994492;28;20189;-67
2022/07/10 05:43:32;;;;;;;2.63;2.42;;;23.30;52.10;;;;;;4994624;28;20201;-67
2022/07/10 05:45:59;;;;;;;2.20;2.00;;;23.40;52.00;;;;;;4994452;28;20193;-67
2022/07/10 05:48:26;;;;;;;3.58;2.08;;;23.60;51.60;;;;;;4993308;28;20202;-68
2022/07/10 05:50:53;;;;;;;2.40;2.10;;;23.70;51.30;;;;;;4994401;28;20197;-68
2022/07/10 05:53:20;;;;;;;1.92;1.83;;;23.80;51.00;;;;;;4994316;28;20874;-68
2022/07/10 05:55:48;;;;;;;2.10;1.90;;;23.90;50.90;;;;;;4993274;28;20651;-68
2022/07/10 05:58:18;;;;;;;3.47;2.00;;;24.00;50.60;;;;;;4993501;28;20662;-68
2022/07/10 06:00:45;;;;;;;3.55;2.00;;;24.10;50.30;;;;;;4994456;28;20219;-68
2022/07/10 06:03:13;;;;;;;3.38;1.75;;;24.30;50.00;;;;;;4993318;28;20312;-68
2022/07/10 06:05:40;;;;;;;2.38;2.15;;;24.30;49.40;;;;;;4994182;28;20197;-68
2022/07/10 06:08:07;;;;;;;3.55;1.90;;;24.30;49.20;;;;;;4993077;28;20197;-68
2022/07/10 06:10:34;;;;;;;1.98;1.88;;;24.30;49.40;;;;;;4992988;28;20670;-68
2022/07/10 06:13:01;;;;;;;2.13;1.80;;;24.30;49.20;;;;;;4994158;28;20228;-68
2022/07/10 06:15:29;;;;;;;2.17;1.98;;;24.20;49.10;;;;;;4994605;28;20220;-68
2022/07/10 06:17:57;;;;;;;1.88;1.77;;;24.20;49.10;;;;;;4993297;28;20260;-68
2022/07/10 06:20:24;;;;;;;2.10;1.90;;;24.10;49.00;;;;;;4994056;28;20710;-67
2022/07/10 06:22:51;;;;;;;1.83;1.73;;;24.10;50.10;;;;;;4993189;28;20221;-68
2022/07/10 06:25:18;;;;;;;2.70;1.90;;;24.10;49.80;;;;;;4993152;28;20217;-68
2022/07/10 06:27:45;;;;;;;2.60;2.10;;;24.10;49.20;;;;;;4992691;28;20193;-68
2022/07/10 06:30:12;;;;;;;2.15;2.00;;;24.20;49.40;;;;;;4993143;28;20217;-68
2022/07/10 06:32:41;;;;;;;2.22;1.80;;;24.20;49.50;;;;;;4993097;28;20232;-68
2022/07/10 06:35:09;;;;;;;3.05;2.00;;;24.30;49.50;;;;;;4996836;28;20264;-67
2022/07/10 06:37:35;;;;;;;2.10;1.90;;;24.30;49.50;;;;;;4997878;28;20197;-68
2022/07/10 06:40:02;;;;;;;2.10;1.90;;;24.30;49.50;;;;;;4998053;28;20204;-68
2022/07/10 06:42:29;;;;;;;3.13;1.80;;;24.20;49.50;;;;;;4997617;28;20249;-67
2022/07/10 06:45:00;;;;;;;2.05;1.95;;;24.20;49.60;;;;;;4997383;28;20186;-68
2022/07/10 06:50:12;;;;;;;2.00;1.85;;;24.20;49.50;;;;;;4996865;28;20189;-68
2022/07/10 06:52:39;;;;;;;2.30;1.90;;;24.10;49.70;;;;;;4996987;28;20662;-68
2022/07/10 06:55:07;;;;;;;1.98;1.88;;;24.10;49.60;;;;;;4996452;28;20686;-68
2022/07/10 06:57:34;;;;;;;2.80;1.98;;;24.10;49.50;;;;;;4996496;28;20263;-68
2022/07/10 07:00:01;;;;;;;1.90;1.80;;;24.10;49.50;;;;;;4996621;28;20204;-68
2022/07/10 07:02:27;;;;;;;2.53;1.80;;;24.20;49.40;;;;;;4996521;28;20219;-68
2022/07/10 07:04:54;;;;;;;2.53;1.65;;;24.30;49.30;;;;;;4996423;28;20205;-68
2022/07/10 07:07:23;;;;;;;2.45;2.05;;;24.30;49.20;;;;;;4997569;28;20201;-68
2022/07/10 07:09:50;;;;;;;2.33;2.00;;;24.40;48.70;;;;;;4996475;28;20239;-69
2022/07/10 07:12:17;;;;;;;2.22;1.90;;;24.40;48.80;;;;;;4996783;28;20228;-69
2022/07/10 07:14:45;;;;;;;2.13;1.85;;;24.60;48.80;;;;;;4996536;28;20217;-69
2022/07/10 07:17:14;;;;;;;2.25;1.70;;;24.80;48.40;;;;;;4997548;28;20207;-68
2022/07/10 07:25:13;;;;;;;3.50;1.80;;;25.20;47.60;;;;;;4997424;28;20200;-68
2022/07/10 07:27:40;;;;;;;3.63;1.80;;;25.20;47.60;;;;;;4995897;28;20202;-69
2022/07/10 07:30:07;;;;;;;3.30;2.10;;;25.10;47.70;;;;;;4995931;28;20284;-67
2022/07/10 07:32:34;;;;;;;13.05;6.82;;;25.00;47.20;;;;;;4996351;28;20324;-67
2022/07/10 07:35:02;;;;;;;66.63;33.42;;;24.90;47.90;;;;;;4997491;28;20303;-67
2022/07/10 07:37:39;;;;;;;63.85;32.03;;;24.90;48.20;;;;;;4996119;28;20208;-67
2022/07/10 07:40:08;;;;;;;93.90;49.53;;;24.80;49.20;;;;;;4995664;28;20189;-67
2022/07/10 07:42:36;;;;;;;92.20;49.38;;;24.70;48.50;;;;;;4995705;28;20227;-67
2022/07/10 07:45:03;;;;;;;60.55;32.28;;;24.60;48.70;;;;;;4995282;28;20229;-67
2022/07/10 07:47:30;;;;;;;45.95;24.70;;;24.40;48.10;;;;;;4995818;28;20666;-67
2022/07/10 07:49:57;;;;;;;33.45;18.33;;;24.20;48.00;;;;;;4995776;28;20209;-68
2022/07/10 07:52:25;;;;;;;23.80;13.38;;;24.10;47.70;;;;;;4995840;28;20221;-67
2022/07/10 07:54:54;;;;;;;17.10;9.43;;;24.00;47.30;;;;;;4995539;28;20227;-65
2022/07/10 07:57:21;;;;;;;17.45;7.68;;;23.80;47.40;;;;;;4995430;28;20292;-67
2022/07/10 07:59:48;;;;;;;10.93;5.57;;;23.80;47.20;;;;;;4995598;28;20201;-67
2022/07/10 08:02:15;;;;;;;7.75;4.25;;;23.70;47.40;;;;;;4995598;28;20221;-68
2022/07/10 08:04:42;;;;;;;7.00;3.72;;;23.70;47.40;;;;;;4995456;28;20284;-67
2022/07/10 08:07:09;;;;;;;6.13;3.25;;;23.60;47.50;;;;;;4995317;28;20200;-67
2022/07/10 08:09:36;;;;;;;3.83;2.65;;;23.50;47.40;;;;;;4995304;28;20199;-68
2022/07/10 08:12:05;;;;;;;5.88;2.60;;;23.50;47.40;;;;;;4995105;28;20225;-67
2022/07/10 08:14:32;;;;;;;4.60;2.40;;;23.50;47.40;;;;;;4995322;28;20592;-66
2022/07/10 08:16:59;;;;;;;3.83;2.33;;;23.50;47.40;;;;;;4995782;28;20220;-67
2022/07/10 08:19:28;;;;;;;3.38;2.20;;;23.60;47.20;;;;;;4994988;28;20205;-69
2022/07/10 08:21:55;;;;;;;2.50;1.90;;;23.80;47.00;;;;;;4997414;28;20315;-67
2022/07/10 08:24:22;;;;;;;3.90;2.20;;;24.00;46.50;;;;;;4998833;28;20190;-67
2022/07/10 08:26:50;;;;;;;3.40;1.90;;;24.10;46.30;;;;;;4998600;28;20193;-66
2022/07/10 08:29:19;;;;;;;3.58;1.92;;;24.30;45.90;;;;;;4995220;28;20197;-68
2022/07/10 08:31:46;;;;;;;3.00;1.67;;;24.40;45.70;;;;;;4995183;28;20226;-68
2022/07/10 08:34:13;;;;;;;4.85;1.60;;;24.40;45.50;;;;;;4994717;28;20262;-67
2022/07/10 08:36:40;;;;;;;5.68;2.00;;;24.40;45.40;;;;;;4994608;28;20343;-67
2022/07/10 08:39:07;;;;;;;3.40;1.77;;;24.30;45.70;;;;;;4994630;28;20197;-68
2022/07/10 08:41:35;;;;;;;3.88;1.73;;;24.10;46.10;;;;;;4995838;28;20268;-67
2022/07/10 08:44:02;;;;;;;2.72;1.90;;;24.10;46.50;;;;;;4994582;28;20208;-68
2022/07/10 08:46:31;;;;;;;5.10;1.80;;;24.10;46.50;;;;;;4994457;28;20275;-68
2022/07/10 08:48:58;;;;;;;1.98;1.58;;;24.20;45.90;;;;;;4994706;28;20207;-68
2022/07/10 08:51:30;;;;;;;2.60;1.73;;;24.30;45.60;;;;;;4995417;28;20260;-68
2022/07/10 08:53:57;;;;;;;4.03;1.90;;;24.30;45.10;;;;;;4995694;28;20202;-68
2022/07/10 08:56:24;;;;;;;2.63;1.65;;;24.40;45.20;;;;;;4993335;28;20228;-68
2022/07/10 08:58:51;;;;;;;3.55;2.00;;;24.40;45.50;;;;;;4995526;28;20194;-67
2022/07/10 09:01:22;;;;;;;3.25;1.70;;;24.30;45.50;;;;;;4994098;28;20209;-68
2022/07/10 09:03:51;;;;;;;2.65;1.70;;;24.20;46.10;;;;;;4993930;28;20288;-67
2022/07/10 09:06:19;;;;;;;2.70;1.58;;;24.20;45.40;;;;;;4995293;28;20193;-68
2022/07/10 09:09:02;;;;;;;2.92;2.00;;;24.20;45.30;;;;;;4995810;28;20614;-68
2022/07/10 09:11:30;;;;;;;3.85;1.90;;;24.30;45.10;;;;;;4992835;28;20204;-68
2022/07/10 09:13:58;;;;;;;1.98;1.55;;;24.20;44.80;;;;;;4994167;28;20204;-68
2022/07/10 09:16:25;;;;;;;1.65;1.50;;;24.30;45.80;;;;;;4994262;28;20213;-68
2022/07/10 09:18:53;;;;;;;4.10;1.90;;;24.30;46.10;;;;;;4994050;28;20208;-68
2022/07/10 09:21:20;;;;;;;2.65;1.50;;;24.40;46.30;;;;;;4993920;28;20209;-71
2022/07/10 09:23:48;;;;;;;4.47;1.50;;;24.40;46.20;;;;;;4995311;28;20194;-68
2022/07/10 09:26:14;;;;;;;2.53;1.50;;;24.40;46.10;;;;;;4993835;28;20300;-68
2022/07/10 09:28:42;;;;;;;1.42;1.33;;;24.40;46.00;;;;;;4993584;28;20666;-69
2022/07/10 09:31:08;;;;;;;2.63;1.50;;;24.40;45.90;;;;;;4993658;28;20662;-68
2022/07/10 09:33:37;;;;;;;2.05;1.52;;;24.50;45.80;;;;;;4993576;28;20617;-69
2022/07/10 09:36:07;;;;;;;3.47;1.50;;;24.60;45.50;;;;;;4993648;28;20217;-69
2022/07/10 09:38:54;;;;;;;1.55;1.40;;;24.70;45.30;;;;;;4993722;28;20201;-69
2022/07/10 09:41:23;;;;;;;1.80;1.30;;;24.70;45.10;;;;;;4993269;28;20255;-68
2022/07/10 09:43:51;;;;;;;1.42;1.33;;;24.70;45.00;;;;;;4993444;28;20638;-68
2022/07/10 09:46:21;;;;;;;2.67;1.48;;;24.80;45.10;;;;;;4995206;28;20622;-68
2022/07/10 09:48:48;;;;;;;1.95;1.50;;;24.80;44.80;;;;;;4993841;28;20193;-69
2022/07/10 09:51:17;;;;;;;2.08;1.40;;;24.90;44.60;;;;;;4995076;28;20197;-68
2022/07/10 09:53:44;;;;;;;1.95;1.30;;;24.80;44.40;;;;;;4993267;28;20231;-69
2022/07/10 09:56:12;;;;;;;2.45;1.50;;;24.80;44.90;;;;;;4993531;28;20221;-68
2022/07/10 09:58:40;;;;;;;1.77;1.40;;;24.80;44.70;;;;;;4994678;28;20189;-69
2022/07/10 10:01:08;;;;;;;3.30;1.30;;;24.70;45.00;;;;;;4993500;28;20201;-69
2022/07/10 10:03:36;;;;;;;2.25;1.58;;;24.80;44.80;;;;;;4994500;28;20220;-69
2022/07/10 10:06:04;;;;;;;3.08;1.50;;;25.00;44.40;;;;;;4993315;28;20665;-69
2022/07/10 10:08:36;;;;;;;1.42;1.25;;;25.00;44.10;;;;;;4993129;28;20629;-69
2022/07/10 10:11:04;;;;;;;2.67;1.55;;;25.10;43.90;;;;;;4993088;28;20204;-69
2022/07/10 10:13:31;;;;;;;1.42;1.30;;;25.20;43.70;;;;;;4994288;28;20213;-69
2022/07/10 10:15:58;;;;;;;3.25;1.58;;;25.30;43.50;;;;;;4994217;28;20201;-68
2022/07/10 10:18:26;;;;;;;2.50;1.60;;;25.30;43.30;;;;;;4993038;28;20193;-69
2022/07/10 10:20:52;;;;;;;2.10;1.30;;;25.30;43.20;;;;;;4995253;28;20197;-69
2022/07/10 10:23:21;;;;;;;1.30;1.20;;;25.30;43.20;;;;;;4995077;28;20267;-69
2022/07/10 10:25:49;;;;;;;1.55;1.20;;;25.40;43.20;;;;;;4993762;28;20685;-69
2022/07/10 10:28:17;;;;;;;1.23;1.17;;;25.40;43.20;;;;;;4993565;28;20201;-68
2022/07/10 10:30:44;;;;;;;1.60;1.30;;;25.40;43.20;;;;;;4994374;28;20284;-68
2022/07/10 10:33:48;;;;;;;2.72;1.30;;;25.40;43.20;;;;;;4994079;28;20209;-68
2022/07/10 10:36:27;;;;;;;2.17;1.33;;;25.30;43.10;;;;;;4993018;28;20209;-69
2022/07/10 10:39:12;;;;;;;1.85;1.30;;;25.30;43.20;;;;;;4993026;28;20208;-68
2022/07/10 10:41:41;;;;;;;2.10;1.40;;;25.30;43.10;;;;;;4993062;28;20190;-69
2022/07/10 10:44:31;;;;;;;1.48;1.23;;;25.40;42.90;;;;;;4992766;28;20232;-67
2022/07/10 10:47:06;;;;;;;2.13;1.30;;;25.40;42.60;;;;;;4992753;28;20646;-69
2022/07/10 10:49:58;;;;;;;1.63;1.10;;;25.40;42.30;;;;;;4993967;28;20520;-69
2022/07/10 10:52:26;;;;;;;2.20;1.40;;;25.40;42.50;;;;;;4994017;28;20232;-69
2022/07/10 10:55:11;;;;;;;1.48;1.30;;;25.40;42.50;;;;;;4992468;28;20263;-69
2022/07/10 10:57:51;;;;;;;2.20;1.20;;;25.30;42.60;;;;;;4993227;28;20212;-69
2022/07/10 11:00:45;;;;;;;1.27;1.10;;;25.30;42.40;;;;;;4994136;28;20181;-68
2022/07/10 11:03:16;;;;;;;1.80;1.40;;;25.40;42.30;;;;;;4948184;28;20645;-69
2022/07/10 11:05:44;;;;;;;1.90;1.23;;;25.40;42.50;;;;;;4993956;28;20709;-68
2022/07/10 11:08:11;;;;;;;1.48;1.25;;;25.40;42.20;;;;;;4992368;28;20295;-67
2022/07/10 11:10:39;;;;;;;1.77;1.30;;;25.30;42.10;;;;;;4992389;28;20580;-68
2022/07/10 11:13:08;;;;;;;1.60;1.20;;;25.40;42.10;;;;;;4992363;28;20237;-69
2022/07/10 11:15:36;;;;;;;2.35;1.33;;;25.40;42.00;;;;;;4992303;28;20221;-68
2022/07/10 11:18:04;;;;;;;1.90;1.40;;;25.30;42.00;;;;;;4992325;28;20621;-68
2022/07/10 11:20:33;;;;;;;1.85;1.20;;;25.40;42.10;;;;;;4994598;28;20252;-68
2022/07/10 11:23:18;;;;;;;2.65;1.42;;;25.40;42.70;;;;;;4997302;28;20210;-67
2022/07/10 11:26:00;;;;;;;1.50;1.10;;;25.40;42.40;;;;;;4997386;28;20185;-69
2022/07/10 11:28:33;;;;;;;1.42;1.20;;;25.40;42.40;;;;;;4995906;28;20244;-69
2022/07/10 11:31:00;;;;;;;2.13;1.20;;;25.30;42.30;;;;;;4995766;28;20623;-69
2022/07/10 11:33:27;;;;;;;2.05;1.30;;;25.30;42.40;;;;;;4995778;28;20233;-69
2022/07/10 11:35:54;;;;;;;1.38;1.02;;;25.30;42.40;;;;;;4995470;28;20213;-69
2022/07/10 11:38:22;;;;;;;2.80;1.50;;;25.30;42.40;;;;;;4996818;28;20244;-69
2022/07/10 11:40:49;;;;;;;1.48;1.20;;;25.30;42.40;;;;;;4995630;28;20205;-69
2022/07/10 11:43:19;;;;;;;1.35;1.17;;;25.30;42.40;;;;;;4996624;28;20217;-69
2022/07/10 11:45:47;;;;;;;1.98;1.23;;;25.30;42.50;;;;;;4995453;28;20193;-69
2022/07/10 11:48:18;;;;;;;2.63;1.33;;;25.30;43.20;;;;;;4996555;28;20189;-68
2022/07/10 11:50:45;;;;;;;1.80;1.10;;;25.30;42.60;;;;;;4995337;28;20209;-69
2022/07/10 11:53:13;;;;;;;2.50;1.40;;;25.20;42.50;;;;;;4996831;28;20612;-68
2022/07/10 11:55:41;;;;;;;1.33;1.23;;;25.20;43.10;;;;;;4995184;28;20218;-69
2022/07/10 11:58:15;;;;;;;1.50;1.25;;;25.30;42.60;;;;;;4995217;28;20681;-69
2022/07/10 12:00:42;;;;;;;1.65;1.10;;;25.20;42.60;;;;;;5023758;22;20227;-72
2022/07/10 12:03:20;;;;;;;1.92;1.40;;;25.20;42.40;;;;;;4999311;28;20185;-75
2022/07/10 12:05:48;;;;;;;2.13;1.70;;;25.30;42.50;;;;;;4998549;28;20189;-75
2022/07/10 12:08:15;;;;;;;1.85;1.40;;;25.30;42.60;;;;;;5016073;28;20684;-75
2022/07/10 12:10:42;;;;;;;2.13;1.20;;;25.30;42.60;;;;;;4998428;28;20220;-76
2022/07/10 12:13:11;;;;;;;1.73;1.10;;;25.30;42.50;;;;;;4998723;28;20529;-75
2022/07/10 12:15:39;;;;;;;1.75;1.40;;;25.30;42.40;;;;;;5015898;28;20259;-75
2022/07/10 12:18:07;;;;;;;1.92;1.20;;;25.30;42.30;;;;;;4998314;28;20205;-76
2022/07/10 12:20:36;;;;;;;1.17;1.08;;;25.30;42.40;;;;;;4998644;28;20200;-75
2022/07/10 12:23:04;;;;;;;2.22;1.27;;;25.30;42.80;;;;;;4998276;28;20196;-75
2022/07/10 12:25:31;;;;;;;1.42;1.30;;;25.30;42.10;;;;;;4998779;28;20200;-75
2022/07/10 12:27:58;;;;;;;2.38;1.08;;;25.20;42.30;;;;;;4998289;28;20223;-75
2022/07/10 12:30:37;;;;;;;2.80;1.10;;;25.20;42.60;;;;;;4997473;28;20197;-76
2022/07/10 12:33:15;;;;;;;1.92;1.40;;;25.10;42.50;;;;;;4997489;28;20200;-75
2022/07/10 12:35:49;;;;;;;1.92;1.13;;;25.10;42.70;;;;;;4997851;28;20215;-76
2022/07/10 12:38:18;;;;;;;1.73;1.08;;;25.10;42.50;;;;;;4997907;28;20248;-75
2022/07/10 12:40:46;;;;;;;2.05;1.25;;;25.10;42.30;;;;;;5015486;28;20220;-76
2022/07/10 12:43:13;;;;;;;1.33;1.10;;;25.10;42.80;;;;;;4997797;28;20251;-75
2022/07/10 12:45:41;;;;;;;1.88;1.20;;;25.10;42.60;;;;;;4997846;28;20204;-75
2022/07/10 12:48:07;;;;;;;1.77;1.13;;;25.00;42.30;;;;;;4997925;28;20665;-76
2022/07/10 12:50:34;;;;;;;2.05;1.20;;;25.00;42.30;;;;;;5015182;28;20654;-75
2022/07/10 12:53:09;;;;;;;1.75;1.30;;;25.00;42.90;;;;;;4997577;28;20251;-76
2022/07/10 12:55:37;;;;;;;2.33;1.20;;;24.90;42.60;;;;;;4997500;28;20653;-76
2022/07/10 12:58:09;;;;;;;1.45;1.00;;;24.90;42.40;;;;;;4997942;28;20723;-75
2022/07/10 13:00:36;;;;;;;1.27;1.00;;;24.90;42.20;;;;;;4997607;28;20586;-76
2022/07/10 13:03:04;;;;;;;1.33;1.00;;;24.90;42.90;;;;;;5015490;28;20173;-76
2022/07/10 13:05:32;;;;;;;1.30;1.10;;;25.00;42.80;;;;;;4997425;28;20201;-75
2022/07/10 13:08:12;;;;;;;1.15;0.90;;;25.00;43.00;;;;;;4997930;28;20314;-75
2022/07/10 13:10:40;;;;;;;1.52;1.00;;;25.00;42.80;;;;;;4997969;28;20216;-75
2022/07/10 13:13:07;;;;;;;1.02;1.02;;;25.10;42.60;;;;;;4997140;28;20622;-73